aviador You're here:

YPKG Decoded Metar

KALGOORLIE in AUSTRALIA
Report Time2017-08-22 11:00:00
UTC Time2017-08-22 11:11:06
Flight Rules vfr VFR
Wind180° at 09 kt
W.Decomp.*RWY 18: 9.0 kt HW 0.2 kt LCW
RWY 11: 3.2 kt HW 8.4 kt RCW
W.Rank180° ranks 36
Current wind is above 180° avg. (6.7)
Visibility9999 m
Phenomena:N/A
Clouds:N/A
Expected CloudBase > 6,800 ft AGL from Temp-Dew spread
CeilingNone
Temp18°C (ISA +5)
Dew Point01°C (32% RH)
AAT12.9°C
QNH1020 hPa
Density Alt1,667 ft
Elevation1,181 ft
Report Wrong Elevation
Raw Report
METAR YPKG 221100Z AUTO 18009KT 9999 // NCD 18/01 Q1020=

Extra information for YPKG:More info

Metar Taf Metar & Taf Last 4 Metars F.Rules Stats Wind Profile Meteogram Temp Stats Airport Information Weather charts Add Link Nearby VenuesMetar ALERT Operation Metar Decoded Social comments